Terminal Aerodrome Forecast
Issued by NWS Sterling, VA

Current Version | Previous Version | Graphics & Text | Print | Product List | Glossary On
Versions: 1 2 3 4 5 6 7 8 9 10 11 12 13 14 15 16 17 18 19 20 21 22 23 24
000
FTUS41 KLWX 201700 RRA
TAFDCA
TAF
KDCA 201742Z 2018/2118 07008KT P6SM BKN050
     FM210000 13007KT P6SM SCT050 BKN090
     FM210900 10004KT P6SM SCT015 OVC025
     FM211200 10005KT P6SM SCT008 BKN015
     FM211500 12006KT P6SM BKN025 BKN050=

USA.gov is the U.S. government's official web portal to all federal, state and local government web resources and services.